sensor_id;sensor_type;location;lat;lon;timestamp;P1;durP1;ratioP1;P2;durP2;ratioP2
30677;SDS011;73746;47.466;8.992;2024-02-21T00:02:01;3.75;;;1.40;;
30677;SDS011;73746;47.466;8.992;2024-02-21T00:04:34;7.28;;;2.70;;
30677;SDS011;73746;47.466;8.992;2024-02-21T00:07:08;2.95;;;1.42;;
30677;SDS011;73746;47.466;8.992;2024-02-21T00:09:40;5.83;;;2.00;;
30677;SDS011;73746;47.466;8.992;2024-02-21T00:12:12;3.42;;;2.35;;
30677;SDS011;73746;47.466;8.992;2024-02-21T00:14:45;4.95;;;1.77;;
30677;SDS011;73746;47.466;8.992;2024-02-21T00:17:17;3.95;;;2.40;;
30677;SDS011;73746;47.466;8.992;2024-02-21T00:19:49;6.40;;;3.00;;
30677;SDS011;73746;47.466;8.992;2024-02-21T00:22:21;4.30;;;2.15;;
30677;SDS011;73746;47.466;8.992;2024-02-21T00:24:54;11.40;;;1.65;;
30677;SDS011;73746;47.466;8.992;2024-02-21T00:27:27;1.70;;;1.32;;
30677;SDS011;73746;47.466;8.992;2024-02-21T00:30:00;7.25;;;2.85;;
30677;SDS011;73746;47.466;8.992;2024-02-21T00:32:32;1.27;;;0.93;;
30677;SDS011;73746;47.466;8.992;2024-02-21T00:35:05;4.55;;;2.05;;
30677;SDS011;73746;47.466;8.992;2024-02-21T00:37:38;4.35;;;1.40;;
30677;SDS011;73746;47.466;8.992;2024-02-21T00:40:18;1.40;;;1.10;;
30677;SDS011;73746;47.466;8.992;2024-02-21T00:42:51;2.95;;;1.17;;
30677;SDS011;73746;47.466;8.992;2024-02-21T00:45:23;4.22;;;1.87;;
30677;SDS011;73746;47.466;8.992;2024-02-21T00:47:55;1.57;;;1.07;;
30677;SDS011;73746;47.466;8.992;2024-02-21T00:50:28;7.78;;;2.05;;
30677;SDS011;73746;47.466;8.992;2024-02-21T00:53:00;2.55;;;1.22;;
30677;SDS011;73746;47.466;8.992;2024-02-21T00:55:33;5.28;;;1.30;;
30677;SDS011;73746;47.466;8.992;2024-02-21T00:58:06;4.22;;;1.40;;
30677;SDS011;73746;47.466;8.992;2024-02-21T01:00:39;4.47;;;1.82;;
30677;SDS011;73746;47.466;8.992;2024-02-21T01:03:11;6.58;;;1.55;;
30677;SDS011;73746;47.466;8.992;2024-02-21T01:05:43;3.62;;;1.50;;
30677;SDS011;73746;47.466;8.992;2024-02-21T01:08:16;4.10;;;1.45;;
30677;SDS011;73746;47.466;8.992;2024-02-21T01:10:48;2.85;;;1.62;;
30677;SDS011;73746;47.466;8.992;2024-02-21T01:13:20;3.65;;;1.15;;
30677;SDS011;73746;47.466;8.992;2024-02-21T01:15:52;1.65;;;1.12;;
30677;SDS011;73746;47.466;8.992;2024-02-21T01:18:25;3.47;;;1.22;;
30677;SDS011;73746;47.466;8.992;2024-02-21T01:20:57;3.45;;;1.17;;
30677;SDS011;73746;47.466;8.992;2024-02-21T01:23:29;4.53;;;1.32;;
30677;SDS011;73746;47.466;8.992;2024-02-21T01:26:02;2.33;;;1.00;;
30677;SDS011;73746;47.466;8.992;2024-02-21T01:28:34;1.47;;;1.00;;
30677;SDS011;73746;47.466;8.992;2024-02-21T01:31:07;2.50;;;1.37;;
30677;SDS011;73746;47.466;8.992;2024-02-21T01:33:39;5.72;;;1.72;;
30677;SDS011;73746;47.466;8.992;2024-02-21T01:36:12;1.55;;;0.88;;
30677;SDS011;73746;47.466;8.992;2024-02-21T01:38:44;5.47;;;1.20;;
30677;SDS011;73746;47.466;8.992;2024-02-21T01:41:16;4.75;;;3.27;;
30677;SDS011;73746;47.466;8.992;2024-02-21T01:43:49;5.78;;;1.45;;
30677;SDS011;73746;47.466;8.992;2024-02-21T01:46:21;4.15;;;2.62;;
30677;SDS011;73746;47.466;8.992;2024-02-21T01:48:56;1.65;;;1.22;;
30677;SDS011;73746;47.466;8.992;2024-02-21T01:51:30;4.83;;;2.83;;
30677;SDS011;73746;47.466;8.992;2024-02-21T01:54:02;1.70;;;1.22;;
30677;SDS011;73746;47.466;8.992;2024-02-21T01:56:34;1.45;;;1.20;;
30677;SDS011;73746;47.466;8.992;2024-02-21T01:59:07;3.72;;;1.60;;
30677;SDS011;73746;47.466;8.992;2024-02-21T02:01:40;3.35;;;2.40;;
30677;SDS011;73746;47.466;8.992;2024-02-21T02:04:12;4.33;;;1.22;;
30677;SDS011;73746;47.466;8.992;2024-02-21T02:06:45;5.55;;;2.05;;
30677;SDS011;73746;47.466;8.992;2024-02-21T02:09:18;4.83;;;1.50;;
30677;SDS011;73746;47.466;8.992;2024-02-21T02:11:50;1.15;;;1.00;;
30677;SDS011;73746;47.466;8.992;2024-02-21T02:14:22;1.75;;;1.40;;
30677;SDS011;73746;47.466;8.992;2024-02-21T02:16:54;2.47;;;1.10;;
30677;SDS011;73746;47.466;8.992;2024-02-21T02:19:27;7.10;;;2.45;;
30677;SDS011;73746;47.466;8.992;2024-02-21T02:22:00;2.80;;;1.25;;
30677;SDS011;73746;47.466;8.992;2024-02-21T02:24:36;1.87;;;1.17;;
30677;SDS011;73746;47.466;8.992;2024-02-21T02:27:08;2.00;;;1.00;;
30677;SDS011;73746;47.466;8.992;2024-02-21T02:29:40;4.12;;;1.75;;
30677;SDS011;73746;47.466;8.992;2024-02-21T02:32:13;2.60;;;1.05;;
30677;SDS011;73746;47.466;8.992;2024-02-21T02:34:45;2.70;;;1.95;;
30677;SDS011;73746;47.466;8.992;2024-02-21T02:37:17;4.20;;;1.27;;
30677;SDS011;73746;47.466;8.992;2024-02-21T02:39:49;2.52;;;1.47;;
30677;SDS011;73746;47.466;8.992;2024-02-21T02:42:22;2.58;;;1.05;;
30677;SDS011;73746;47.466;8.992;2024-02-21T02:44:54;3.22;;;1.30;;
30677;SDS011;73746;47.466;8.992;2024-02-21T02:47:27;3.25;;;1.27;;
30677;SDS011;73746;47.466;8.992;2024-02-21T02:49:59;3.40;;;1.30;;
30677;SDS011;73746;47.466;8.992;2024-02-21T02:52:31;3.60;;;1.12;;
30677;SDS011;73746;47.466;8.992;2024-02-21T02:55:04;1.98;;;1.37;;
30677;SDS011;73746;47.466;8.992;2024-02-21T02:57:37;1.47;;;1.30;;
30677;SDS011;73746;47.466;8.992;2024-02-21T03:00:12;3.77;;;2.42;;
30677;SDS011;73746;47.466;8.992;2024-02-21T03:02:45;2.90;;;1.55;;
30677;SDS011;73746;47.466;8.992;2024-02-21T03:05:20;2.72;;;1.20;;
30677;SDS011;73746;47.466;8.992;2024-02-21T03:07:53;3.67;;;0.80;;
30677;SDS011;73746;47.466;8.992;2024-02-21T03:10:25;1.37;;;0.85;;
30677;SDS011;73746;47.466;8.992;2024-02-21T03:12:58;12.00;;;1.82;;
30677;SDS011;73746;47.466;8.992;2024-02-21T03:15:30;2.17;;;1.22;;
30677;SDS011;73746;47.466;8.992;2024-02-21T03:18:02;3.50;;;1.20;;
30677;SDS011;73746;47.466;8.992;2024-02-21T03:20:36;3.77;;;2.08;;
30677;SDS011;73746;47.466;8.992;2024-02-21T03:23:08;3.25;;;1.40;;
30677;SDS011;73746;47.466;8.992;2024-02-21T03:25:40;3.50;;;1.42;;
30677;SDS011;73746;47.466;8.992;2024-02-21T03:28:13;1.50;;;1.20;;
30677;SDS011;73746;47.466;8.992;2024-02-21T03:30:46;2.40;;;1.05;;
30677;SDS011;73746;47.466;8.992;2024-02-21T03:33:18;2.45;;;1.20;;
30677;SDS011;73746;47.466;8.992;2024-02-21T03:35:52;4.45;;;1.00;;
30677;SDS011;73746;47.466;8.992;2024-02-21T03:38:24;3.35;;;2.00;;
30677;SDS011;73746;47.466;8.992;2024-02-21T03:40:56;3.15;;;1.92;;
30677;SDS011;73746;47.466;8.992;2024-02-21T03:43:28;2.75;;;1.00;;
30677;SDS011;73746;47.466;8.992;2024-02-21T03:46:00;4.03;;;1.87;;
30677;SDS011;73746;47.466;8.992;2024-02-21T03:48:32;2.40;;;1.20;;
30677;SDS011;73746;47.466;8.992;2024-02-21T03:51:05;2.42;;;1.20;;
30677;SDS011;73746;47.466;8.992;2024-02-21T03:53:37;2.22;;;1.62;;
30677;SDS011;73746;47.466;8.992;2024-02-21T03:56:09;4.05;;;1.82;;
30677;SDS011;73746;47.466;8.992;2024-02-21T03:58:41;4.10;;;1.75;;
30677;SDS011;73746;47.466;8.992;2024-02-21T04:01:14;1.70;;;1.27;;
30677;SDS011;73746;47.466;8.992;2024-02-21T04:03:47;2.33;;;1.27;;
30677;SDS011;73746;47.466;8.992;2024-02-21T04:06:19;3.80;;;1.05;;
30677;SDS011;73746;47.466;8.992;2024-02-21T04:08:51;5.67;;;1.75;;
30677;SDS011;73746;47.466;8.992;2024-02-21T04:11:24;3.02;;;1.32;;
30677;SDS011;73746;47.466;8.992;2024-02-21T04:13:56;4.05;;;1.05;;
30677;SDS011;73746;47.466;8.992;2024-02-21T04:16:28;4.00;;;1.57;;
30677;SDS011;73746;47.466;8.992;2024-02-21T04:19:00;2.05;;;1.25;;
30677;SDS011;73746;47.466;8.992;2024-02-21T04:21:33;1.70;;;1.40;;
30677;SDS011;73746;47.466;8.992;2024-02-21T04:24:06;1.57;;;1.22;;
30677;SDS011;73746;47.466;8.992;2024-02-21T04:26:38;2.72;;;1.22;;
30677;SDS011;73746;47.466;8.992;2024-02-21T04:29:11;3.25;;;1.00;;
30677;SDS011;73746;47.466;8.992;2024-02-21T04:31:43;1.95;;;1.80;;
30677;SDS011;73746;47.466;8.992;2024-02-21T04:34:15;1.98;;;1.20;;
30677;SDS011;73746;47.466;8.992;2024-02-21T04:36:48;1.75;;;1.00;;
30677;SDS011;73746;47.466;8.992;2024-02-21T04:39:20;1.40;;;0.90;;
30677;SDS011;73746;47.466;8.992;2024-02-21T04:41:52;3.10;;;1.05;;
30677;SDS011;73746;47.466;8.992;2024-02-21T04:44:24;6.03;;;1.42;;
30677;SDS011;73746;47.466;8.992;2024-02-21T04:46:56;1.87;;;0.95;;
30677;SDS011;73746;47.466;8.992;2024-02-21T04:49:29;1.30;;;1.20;;
30677;SDS011;73746;47.466;8.992;2024-02-21T04:52:01;2.85;;;1.32;;
30677;SDS011;73746;47.466;8.992;2024-02-21T04:54:34;1.75;;;1.32;;
30677;SDS011;73746;47.466;8.992;2024-02-21T04:57:06;1.47;;;1.17;;
30677;SDS011;73746;47.466;8.992;2024-02-21T04:59:39;2.37;;;1.42;;
30677;SDS011;73746;47.466;8.992;2024-02-21T05:02:11;1.62;;;1.17;;
30677;SDS011;73746;47.466;8.992;2024-02-21T05:04:44;3.52;;;1.62;;
30677;SDS011;73746;47.466;8.992;2024-02-21T05:07:16;2.58;;;1.02;;
30677;SDS011;73746;47.466;8.992;2024-02-21T05:09:49;2.08;;;1.07;;
30677;SDS011;73746;47.466;8.992;2024-02-21T05:12:21;1.10;;;1.00;;
30677;SDS011;73746;47.466;8.992;2024-02-21T05:14:53;1.95;;;1.32;;
30677;SDS011;73746;47.466;8.992;2024-02-21T05:17:25;3.85;;;1.42;;
30677;SDS011;73746;47.466;8.992;2024-02-21T05:19:58;3.20;;;1.17;;
30677;SDS011;73746;47.466;8.992;2024-02-21T05:22:30;2.45;;;1.20;;
30677;SDS011;73746;47.466;8.992;2024-02-21T05:25:03;4.45;;;1.80;;
30677;SDS011;73746;47.466;8.992;2024-02-21T05:27:36;1.67;;;1.15;;
30677;SDS011;73746;47.466;8.992;2024-02-21T05:30:08;3.10;;;1.50;;
30677;SDS011;73746;47.466;8.992;2024-02-21T05:32:42;2.30;;;1.20;;
30677;SDS011;73746;47.466;8.992;2024-02-21T05:35:14;12.78;;;3.52;;
30677;SDS011;73746;47.466;8.992;2024-02-21T05:37:47;3.45;;;1.20;;
30677;SDS011;73746;47.466;8.992;2024-02-21T05:40:21;2.22;;;1.50;;
30677;SDS011;73746;47.466;8.992;2024-02-21T05:42:54;6.10;;;2.58;;
30677;SDS011;73746;47.466;8.992;2024-02-21T05:45:27;3.75;;;2.02;;
30677;SDS011;73746;47.466;8.992;2024-02-21T05:47:59;24.15;;;12.00;;
30677;SDS011;73746;47.466;8.992;2024-02-21T05:50:32;14.58;;;6.78;;
30677;SDS011;73746;47.466;8.992;2024-02-21T05:53:04;9.78;;;5.10;;
30677;SDS011;73746;47.466;8.992;2024-02-21T05:55:36;3.58;;;2.50;;
30677;SDS011;73746;47.466;8.992;2024-02-21T05:58:09;4.65;;;2.67;;
30677;SDS011;73746;47.466;8.992;2024-02-21T06:00:43;2.92;;;1.60;;
30677;SDS011;73746;47.466;8.992;2024-02-21T06:03:15;3.62;;;2.33;;
30677;SDS011;73746;47.466;8.992;2024-02-21T06:05:47;2.62;;;1.80;;
30677;SDS011;73746;47.466;8.992;2024-02-21T06:08:20;3.42;;;1.85;;
30677;SDS011;73746;47.466;8.992;2024-02-21T06:10:52;2.98;;;2.10;;
30677;SDS011;73746;47.466;8.992;2024-02-21T06:13:24;3.58;;;2.08;;
30677;SDS011;73746;47.466;8.992;2024-02-21T06:15:57;7.65;;;3.52;;
30677;SDS011;73746;47.466;8.992;2024-02-21T06:18:29;4.10;;;2.95;;
30677;SDS011;73746;47.466;8.992;2024-02-21T06:21:01;5.58;;;3.45;;
30677;SDS011;73746;47.466;8.992;2024-02-21T06:23:33;4.22;;;3.08;;
30677;SDS011;73746;47.466;8.992;2024-02-21T06:26:07;8.15;;;4.08;;
30677;SDS011;73746;47.466;8.992;2024-02-21T06:28:39;5.70;;;3.72;;
30677;SDS011;73746;47.466;8.992;2024-02-21T06:31:12;8.18;;;3.25;;
30677;SDS011;73746;47.466;8.992;2024-02-21T06:33:45;3.27;;;2.25;;
30677;SDS011;73746;47.466;8.992;2024-02-21T06:36:17;3.75;;;1.67;;
30677;SDS011;73746;47.466;8.992;2024-02-21T06:38:50;3.17;;;2.30;;
30677;SDS011;73746;47.466;8.992;2024-02-21T06:41:22;2.95;;;1.80;;
30677;SDS011;73746;47.466;8.992;2024-02-21T06:43:54;9.50;;;1.98;;
30677;SDS011;73746;47.466;8.992;2024-02-21T06:46:26;5.42;;;2.30;;
30677;SDS011;73746;47.466;8.992;2024-02-21T06:49:01;6.25;;;2.52;;
30677;SDS011;73746;47.466;8.992;2024-02-21T06:51:34;9.70;;;2.22;;
30677;SDS011;73746;47.466;8.992;2024-02-21T06:54:06;3.87;;;2.17;;
30677;SDS011;73746;47.466;8.992;2024-02-21T06:56:40;5.53;;;2.00;;
30677;SDS011;73746;47.466;8.992;2024-02-21T06:59:12;2.87;;;1.35;;
30677;SDS011;73746;47.466;8.992;2024-02-21T07:01:46;5.05;;;1.55;;
30677;SDS011;73746;47.466;8.992;2024-02-21T07:04:18;6.90;;;1.50;;
30677;SDS011;73746;47.466;8.992;2024-02-21T07:06:51;3.40;;;1.25;;
30677;SDS011;73746;47.466;8.992;2024-02-21T07:09:23;1.62;;;1.50;;
30677;SDS011;73746;47.466;8.992;2024-02-21T07:11:55;2.22;;;1.50;;
30677;SDS011;73746;47.466;8.992;2024-02-21T07:14:28;5.03;;;1.50;;
30677;SDS011;73746;47.466;8.992;2024-02-21T07:17:00;2.92;;;1.70;;
30677;SDS011;73746;47.466;8.992;2024-02-21T07:19:33;2.50;;;1.50;;
30677;SDS011;73746;47.466;8.992;2024-02-21T07:22:05;20.23;;;2.70;;
30677;SDS011;73746;47.466;8.992;2024-02-21T07:24:38;4.03;;;2.08;;
30677;SDS011;73746;47.466;8.992;2024-02-21T07:27:10;3.20;;;1.77;;
30677;SDS011;73746;47.466;8.992;2024-02-21T07:29:44;4.10;;;1.92;;
30677;SDS011;73746;47.466;8.992;2024-02-21T07:32:17;4.30;;;1.72;;
30677;SDS011;73746;47.466;8.992;2024-02-21T07:34:50;5.53;;;1.87;;
30677;SDS011;73746;47.466;8.992;2024-02-21T07:37:22;8.05;;;2.58;;
30677;SDS011;73746;47.466;8.992;2024-02-21T07:39:54;5.15;;;1.85;;
30677;SDS011;73746;47.466;8.992;2024-02-21T07:42:26;4.65;;;1.82;;
30677;SDS011;73746;47.466;8.992;2024-02-21T07:44:59;3.50;;;1.65;;
30677;SDS011;73746;47.466;8.992;2024-02-21T07:47:32;3.00;;;1.50;;
30677;SDS011;73746;47.466;8.992;2024-02-21T07:50:05;5.97;;;1.45;;
30677;SDS011;73746;47.466;8.992;2024-02-21T07:52:39;3.98;;;1.87;;
30677;SDS011;73746;47.466;8.992;2024-02-21T07:55:12;5.00;;;1.90;;
30677;SDS011;73746;47.466;8.992;2024-02-21T07:57:44;4.78;;;1.95;;
30677;SDS011;73746;47.466;8.992;2024-02-21T08:00:18;2.02;;;1.42;;
30677;SDS011;73746;47.466;8.992;2024-02-21T08:02:51;5.28;;;1.87;;
30677;SDS011;73746;47.466;8.992;2024-02-21T08:05:23;4.85;;;1.80;;
30677;SDS011;73746;47.466;8.992;2024-02-21T08:07:55;2.70;;;1.40;;
30677;SDS011;73746;47.466;8.992;2024-02-21T08:10:27;2.90;;;1.40;;
30677;SDS011;73746;47.466;8.992;2024-02-21T08:12:59;3.20;;;1.42;;
30677;SDS011;73746;47.466;8.992;2024-02-21T08:15:31;1.60;;;1.20;;
30677;SDS011;73746;47.466;8.992;2024-02-21T08:18:04;2.42;;;1.65;;
30677;SDS011;73746;47.466;8.992;2024-02-21T08:20:38;2.72;;;1.40;;
30677;SDS011;73746;47.466;8.992;2024-02-21T08:23:10;1.65;;;1.45;;
30677;SDS011;73746;47.466;8.992;2024-02-21T08:25:42;4.22;;;1.17;;
30677;SDS011;73746;47.466;8.992;2024-02-21T08:28:14;4.12;;;1.65;;
30677;SDS011;73746;47.466;8.992;2024-02-21T08:30:46;4.30;;;1.70;;
30677;SDS011;73746;47.466;8.992;2024-02-21T08:33:18;2.40;;;1.40;;
30677;SDS011;73746;47.466;8.992;2024-02-21T08:35:53;2.47;;;1.75;;
30677;SDS011;73746;47.466;8.992;2024-02-21T08:38:25;3.83;;;1.87;;
30677;SDS011;73746;47.466;8.992;2024-02-21T08:40:57;2.50;;;1.70;;
30677;SDS011;73746;47.466;8.992;2024-02-21T08:43:29;2.85;;;1.80;;
30677;SDS011;73746;47.466;8.992;2024-02-21T08:46:03;4.67;;;1.85;;
30677;SDS011;73746;47.466;8.992;2024-02-21T08:48:35;1.95;;;1.50;;
30677;SDS011;73746;47.466;8.992;2024-02-21T08:51:07;3.55;;;1.87;;
30677;SDS011;73746;47.466;8.992;2024-02-21T08:53:43;3.02;;;1.42;;
30677;SDS011;73746;47.466;8.992;2024-02-21T08:56:15;3.70;;;1.60;;
30677;SDS011;73746;47.466;8.992;2024-02-21T08:59:57;3.02;;;1.90;;
30677;SDS011;73746;47.466;8.992;2024-02-21T09:02:29;3.00;;;1.90;;
30677;SDS011;73746;47.466;8.992;2024-02-21T09:05:09;5.45;;;3.05;;
30677;SDS011;73746;47.466;8.992;2024-02-21T09:07:42;4.37;;;1.72;;
30677;SDS011;73746;47.466;8.992;2024-02-21T09:10:14;4.53;;;1.72;;
30677;SDS011;73746;47.466;8.992;2024-02-21T09:12:47;5.83;;;1.77;;
30677;SDS011;73746;47.466;8.992;2024-02-21T09:15:19;7.28;;;1.70;;
30677;SDS011;73746;47.466;8.992;2024-02-21T09:17:53;3.25;;;1.40;;
30677;SDS011;73746;47.466;8.992;2024-02-21T09:20:26;5.75;;;2.50;;
30677;SDS011;73746;47.466;8.992;2024-02-21T09:22:58;5.70;;;2.65;;
30677;SDS011;73746;47.466;8.992;2024-02-21T09:25:31;3.90;;;2.33;;
30677;SDS011;73746;47.466;8.992;2024-02-21T09:28:04;2.40;;;1.50;;
30677;SDS011;73746;47.466;8.992;2024-02-21T09:30:36;4.15;;;2.00;;
30677;SDS011;73746;47.466;8.992;2024-02-21T09:33:08;1.82;;;1.22;;
30677;SDS011;73746;47.466;8.992;2024-02-21T09:35:42;7.17;;;3.20;;
30677;SDS011;73746;47.466;8.992;2024-02-21T09:38:14;3.90;;;1.87;;
30677;SDS011;73746;47.466;8.992;2024-02-21T09:40:47;2.92;;;1.47;;
30677;SDS011;73746;47.466;8.992;2024-02-21T09:43:25;3.50;;;2.62;;
30677;SDS011;73746;47.466;8.992;2024-02-21T09:45:57;6.12;;;2.00;;
30677;SDS011;73746;47.466;8.992;2024-02-21T09:48:33;2.92;;;1.72;;
30677;SDS011;73746;47.466;8.992;2024-02-21T09:51:09;2.12;;;1.52;;
30677;SDS011;73746;47.466;8.992;2024-02-21T09:53:42;2.12;;;1.52;;
30677;SDS011;73746;47.466;8.992;2024-02-21T09:56:16;3.62;;;1.87;;
30677;SDS011;73746;47.466;8.992;2024-02-21T09:58:48;4.30;;;1.67;;
30677;SDS011;73746;47.466;8.992;2024-02-21T10:01:21;1.98;;;1.67;;
30677;SDS011;73746;47.466;8.992;2024-02-21T10:03:54;2.45;;;1.85;;
30677;SDS011;73746;47.466;8.992;2024-02-21T10:06:27;1.65;;;1.55;;
30677;SDS011;73746;47.466;8.992;2024-02-21T10:09:39;4.08;;;1.60;;
30677;SDS011;73746;47.466;8.992;2024-02-21T10:12:11;3.25;;;1.25;;
30677;SDS011;73746;47.466;8.992;2024-02-21T10:14:45;2.75;;;1.80;;
30677;SDS011;73746;47.466;8.992;2024-02-21T10:17:18;3.83;;;1.50;;
30677;SDS011;73746;47.466;8.992;2024-02-21T10:19:50;1.37;;;1.20;;
30677;SDS011;73746;47.466;8.992;2024-02-21T10:22:22;4.20;;;1.45;;
30677;SDS011;73746;47.466;8.992;2024-02-21T10:24:55;3.27;;;1.92;;
30677;SDS011;73746;47.466;8.992;2024-02-21T10:27:29;2.25;;;1.87;;
30677;SDS011;73746;47.466;8.992;2024-02-21T10:30:01;3.70;;;1.52;;
30677;SDS011;73746;47.466;8.992;2024-02-21T10:32:33;3.20;;;1.32;;
30677;SDS011;73746;47.466;8.992;2024-02-21T10:37:15;4.28;;;1.60;;
30677;SDS011;73746;47.466;8.992;2024-02-21T10:39:47;2.95;;;1.60;;
30677;SDS011;73746;47.466;8.992;2024-02-21T10:42:21;1.75;;;1.15;;
30677;SDS011;73746;47.466;8.992;2024-02-21T10:44:55;2.35;;;1.52;;
30677;SDS011;73746;47.466;8.992;2024-02-21T10:47:30;3.58;;;1.17;;
30677;SDS011;73746;47.466;8.992;2024-02-21T10:50:06;2.70;;;1.62;;
30677;SDS011;73746;47.466;8.992;2024-02-21T10:52:43;1.55;;;1.02;;
30677;SDS011;73746;47.466;8.992;2024-02-21T10:55:19;1.05;;;0.90;;
30677;SDS011;73746;47.466;8.992;2024-02-21T10:57:55;2.72;;;1.60;;
30677;SDS011;73746;47.466;8.992;2024-02-21T11:00:28;1.15;;;0.90;;
30677;SDS011;73746;47.466;8.992;2024-02-21T11:03:02;4.42;;;1.10;;
30677;SDS011;73746;47.466;8.992;2024-02-21T11:05:35;1.92;;;1.20;;
30677;SDS011;73746;47.466;8.992;2024-02-21T11:08:07;2.17;;;0.70;;
30677;SDS011;73746;47.466;8.992;2024-02-21T11:10:40;1.55;;;0.98;;
30677;SDS011;73746;47.466;8.992;2024-02-21T11:13:15;4.20;;;1.35;;
30677;SDS011;73746;47.466;8.992;2024-02-21T11:15:47;1.17;;;0.90;;
30677;SDS011;73746;47.466;8.992;2024-02-21T11:18:25;2.75;;;1.55;;
30677;SDS011;73746;47.466;8.992;2024-02-21T11:20:58;2.35;;;1.20;;
30677;SDS011;73746;47.466;8.992;2024-02-21T11:23:30;5.03;;;1.15;;
30677;SDS011;73746;47.466;8.992;2024-02-21T11:26:06;2.87;;;0.90;;
30677;SDS011;73746;47.466;8.992;2024-02-21T11:28:39;0.40;;;0.20;;
30677;SDS011;73746;47.466;8.992;2024-02-21T11:31:41;0.23;;;0.10;;
30677;SDS011;73746;47.466;8.992;2024-02-21T11:34:17;0.25;;;0.20;;
30677;SDS011;73746;47.466;8.992;2024-02-21T11:36:49;0.78;;;0.30;;
30677;SDS011;73746;47.466;8.992;2024-02-21T11:39:23;0.65;;;0.28;;
30677;SDS011;73746;47.466;8.992;2024-02-21T11:42:03;0.40;;;0.30;;
30677;SDS011;73746;47.466;8.992;2024-02-21T11:44:37;0.62;;;0.30;;
30677;SDS011;73746;47.466;8.992;2024-02-21T11:47:13;0.40;;;0.20;;
30677;SDS011;73746;47.466;8.992;2024-02-21T11:49:47;0.47;;;0.30;;
30677;SDS011;73746;47.466;8.992;2024-02-21T11:52:22;0.70;;;0.57;;
30677;SDS011;73746;47.466;8.992;2024-02-21T11:54:56;0.30;;;0.28;;
30677;SDS011;73746;47.466;8.992;2024-02-21T11:57:29;0.57;;;0.23;;
30677;SDS011;73746;47.466;8.992;2024-02-21T12:00:11;0.45;;;0.20;;
30677;SDS011;73746;47.466;8.992;2024-02-21T12:02:45;1.02;;;0.20;;
30677;SDS011;73746;47.466;8.992;2024-02-21T12:05:22;0.20;;;0.20;;
30677;SDS011;73746;47.466;8.992;2024-02-21T12:07:58;0.30;;;0.20;;
30677;SDS011;73746;47.466;8.992;2024-02-21T12:10:32;0.30;;;0.25;;
30677;SDS011;73746;47.466;8.992;2024-02-21T12:13:06;0.40;;;0.30;;
30677;SDS011;73746;47.466;8.992;2024-02-21T12:15:39;1.87;;;0.30;;
30677;SDS011;73746;47.466;8.992;2024-02-21T12:18:11;1.10;;;0.28;;
30677;SDS011;73746;47.466;8.992;2024-02-21T12:20:43;0.15;;;0.10;;
30677;SDS011;73746;47.466;8.992;2024-02-21T12:23:18;0.78;;;0.30;;
30677;SDS011;73746;47.466;8.992;2024-02-21T12:25:51;0.10;;;0.10;;
30677;SDS011;73746;47.466;8.992;2024-02-21T12:28:24;0.62;;;0.37;;
30677;SDS011;73746;47.466;8.992;2024-02-21T12:30:56;1.90;;;0.17;;
30677;SDS011;73746;47.466;8.992;2024-02-21T12:33:28;1.25;;;0.20;;
30677;SDS011;73746;47.466;8.992;2024-02-21T12:36:03;0.50;;;0.50;;
30677;SDS011;73746;47.466;8.992;2024-02-21T12:38:36;0.20;;;0.20;;
30677;SDS011;73746;47.466;8.992;2024-02-21T12:41:08;0.40;;;0.20;;
30677;SDS011;73746;47.466;8.992;2024-02-21T12:43:40;0.23;;;0.13;;
30677;SDS011;73746;47.466;8.992;2024-02-21T12:46:12;0.13;;;0.13;;
30677;SDS011;73746;47.466;8.992;2024-02-21T12:48:45;0.20;;;0.10;;
30677;SDS011;73746;47.466;8.992;2024-02-21T12:51:17;0.10;;;0.10;;
30677;SDS011;73746;47.466;8.992;2024-02-21T12:53:50;1.32;;;0.45;;
30677;SDS011;73746;47.466;8.992;2024-02-21T12:56:22;0.45;;;0.45;;
30677;SDS011;73746;47.466;8.992;2024-02-21T12:58:55;0.75;;;0.20;;
30677;SDS011;73746;47.466;8.992;2024-02-21T13:01:28;0.40;;;0.30;;
30677;SDS011;73746;47.466;8.992;2024-02-21T13:04:00;0.45;;;0.30;;
30677;SDS011;73746;47.466;8.992;2024-02-21T13:06:40;0.95;;;0.40;;
30677;SDS011;73746;47.466;8.992;2024-02-21T13:09:13;0.30;;;0.30;;
30677;SDS011;73746;47.466;8.992;2024-02-21T13:11:45;0.75;;;0.68;;
30677;SDS011;73746;47.466;8.992;2024-02-21T13:14:17;0.65;;;0.28;;
30677;SDS011;73746;47.466;8.992;2024-02-21T13:16:51;1.32;;;0.50;;
30677;SDS011;73746;47.466;8.992;2024-02-21T13:19:23;1.32;;;0.37;;
30677;SDS011;73746;47.466;8.992;2024-02-21T13:21:56;0.33;;;0.33;;
30677;SDS011;73746;47.466;8.992;2024-02-21T13:24:28;0.98;;;0.30;;
30677;SDS011;73746;47.466;8.992;2024-02-21T13:27:01;1.75;;;0.20;;
30677;SDS011;73746;47.466;8.992;2024-02-21T13:29:33;2.02;;;0.40;;
30677;SDS011;73746;47.466;8.992;2024-02-21T13:32:05;0.40;;;0.25;;
30677;SDS011;73746;47.466;8.992;2024-02-21T13:34:39;0.37;;;0.20;;
30677;SDS011;73746;47.466;8.992;2024-02-21T13:37:11;0.95;;;0.68;;
30677;SDS011;73746;47.466;8.992;2024-02-21T13:39:44;0.20;;;0.20;;
30677;SDS011;73746;47.466;8.992;2024-02-21T13:42:16;2.67;;;0.50;;
30677;SDS011;73746;47.466;8.992;2024-02-21T13:44:48;0.37;;;0.30;;
30677;SDS011;73746;47.466;8.992;2024-02-21T13:47:20;0.68;;;0.33;;
30677;SDS011;73746;47.466;8.992;2024-02-21T13:49:52;0.20;;;0.20;;
30677;SDS011;73746;47.466;8.992;2024-02-21T13:52:25;0.30;;;0.20;;
30677;SDS011;73746;47.466;8.992;2024-02-21T13:54:57;0.20;;;0.20;;
30677;SDS011;73746;47.466;8.992;2024-02-21T13:57:29;1.70;;;0.40;;
30677;SDS011;73746;47.466;8.992;2024-02-21T14:00:01;0.60;;;0.30;;
30677;SDS011;73746;47.466;8.992;2024-02-21T14:02:34;0.65;;;0.50;;
30677;SDS011;73746;47.466;8.992;2024-02-21T14:06:54;0.53;;;0.53;;
30677;SDS011;73746;47.466;8.992;2024-02-21T14:09:26;1.65;;;0.40;;
30677;SDS011;73746;47.466;8.992;2024-02-21T14:11:59;0.40;;;0.37;;
30677;SDS011;73746;47.466;8.992;2024-02-21T14:14:32;0.68;;;0.40;;
30677;SDS011;73746;47.466;8.992;2024-02-21T14:17:06;0.80;;;0.33;;
30677;SDS011;73746;47.466;8.992;2024-02-21T14:19:39;0.33;;;0.33;;
30677;SDS011;73746;47.466;8.992;2024-02-21T14:22:11;1.70;;;0.40;;
30677;SDS011;73746;47.466;8.992;2024-02-21T14:24:44;0.65;;;0.30;;
30677;SDS011;73746;47.466;8.992;2024-02-21T14:27:17;0.68;;;0.23;;
30677;SDS011;73746;47.466;8.992;2024-02-21T14:29:49;0.28;;;0.20;;
30677;SDS011;73746;47.466;8.992;2024-02-21T14:32:21;0.30;;;0.30;;
30677;SDS011;73746;47.466;8.992;2024-02-21T14:34:53;0.45;;;0.25;;
30677;SDS011;73746;47.466;8.992;2024-02-21T14:37:25;1.57;;;0.60;;
30677;SDS011;73746;47.466;8.992;2024-02-21T14:39:57;1.65;;;0.33;;
30677;SDS011;73746;47.466;8.992;2024-02-21T14:42:30;1.32;;;0.20;;
30677;SDS011;73746;47.466;8.992;2024-02-21T14:45:04;0.95;;;0.70;;
30677;SDS011;73746;47.466;8.992;2024-02-21T14:47:38;0.37;;;0.28;;
30677;SDS011;73746;47.466;8.992;2024-02-21T14:50:10;1.40;;;0.53;;
30677;SDS011;73746;47.466;8.992;2024-02-21T14:52:42;0.90;;;0.47;;
30677;SDS011;73746;47.466;8.992;2024-02-21T14:55:15;0.55;;;0.50;;
30677;SDS011;73746;47.466;8.992;2024-02-21T14:57:47;0.45;;;0.40;;
30677;SDS011;73746;47.466;8.992;2024-02-21T15:00:19;1.15;;;0.35;;
30677;SDS011;73746;47.466;8.992;2024-02-21T15:02:53;0.90;;;0.60;;
30677;SDS011;73746;47.466;8.992;2024-02-21T15:05:25;1.05;;;0.60;;
30677;SDS011;73746;47.466;8.992;2024-02-21T15:07:58;2.52;;;0.68;;
30677;SDS011;73746;47.466;8.992;2024-02-21T15:10:31;1.10;;;0.40;;
30677;SDS011;73746;47.466;8.992;2024-02-21T15:13:04;1.30;;;0.57;;
30677;SDS011;73746;47.466;8.992;2024-02-21T15:15:36;0.60;;;0.40;;
30677;SDS011;73746;47.466;8.992;2024-02-21T15:18:08;1.35;;;0.60;;
30677;SDS011;73746;47.466;8.992;2024-02-21T15:20:40;0.72;;;0.60;;
30677;SDS011;73746;47.466;8.992;2024-02-21T15:23:12;1.20;;;0.88;;
30677;SDS011;73746;47.466;8.992;2024-02-21T15:25:45;1.05;;;0.53;;
30677;SDS011;73746;47.466;8.992;2024-02-21T15:28:17;1.45;;;0.98;;